Terminal Aerodrome Forecast
Issued by NWS Riverton, WY

Home | Current Version | Previous Version | Text Only | Print | Product List | Glossary On
Versions: 1 2 3 4 5 6 7 8 9 10 11 12 13
000
FTUS45 KRIW 180500
TAFRIW
TAF
KRIW 180525Z 1806/1906 35007KT P6SM SCT120
     FM181400 VRB05KT P6SM SCT120
     FM182000 21008KT P6SM SCT110
     FM190300 30007KT P6SM SCT110 BKN130=

USA.gov is the U.S. government's official web portal to all federal, state and local government web resources and services.